Time,TemperatureF,DewpointF,PressureIn,WindDirection,WindDirectionDegrees,WindSpeedMPH,WindSpeedGustMPH,Humidity,HourlyPrecipIn,Conditions,Clouds,dailyrainin,SoftwareType,DateUTC
2013-02-08 00:00:00,27.1,7.5,30.01,NE,51,0.0,1.0,43,0.00,,,0.00,Wunderground v.1.15,2013-02-08 07:00:00,
2013-02-08 00:05:00,26.8,7.8,30.01,NE,51,0.0,1.0,44,0.00,,,0.00,Wunderground v.1.15,2013-02-08 07:05:00,
2013-02-08 00:14:00,27.5,5.7,30.01,WNW,293,0.0,1.0,39,0.00,,,0.00,Wunderground v.1.15,2013-02-08 07:14:00,
2013-02-08 00:20:00,28.1,6.3,30.01,West,265,0.0,0.0,39,0.00,,,0.00,Wunderground v.1.15,2013-02-08 07:20:00,
2013-02-08 00:30:00,27.8,5.4,30.01,West,270,0.0,0.0,38,0.00,,,0.00,Wunderground v.1.15,2013-02-08 07:30:00,
2013-02-08 00:35:00,27.5,5.2,30.01,West,270,0.0,0.0,38,0.00,,,0.00,Wunderground v.1.15,2013-02-08 07:35:00,
2013-02-08 00:40:00,27.0,5.8,30.01,NNW,347,0.0,0.0,40,0.00,,,0.00,Wunderground v.1.15,2013-02-08 07:40:00,
2013-02-08 00:45:00,26.5,5.9,30.01,NNW,347,0.0,0.0,41,0.00,,,0.00,Wunderground v.1.15,2013-02-08 07:45:00,
2013-02-08 00:55:00,25.6,5.6,30.01,NNW,347,0.0,0.0,42,0.00,,,0.00,Wunderground v.1.15,2013-02-08 07:55:00,
2013-02-08 01:00:00,25.5,5.6,30.01,NNW,347,0.0,0.0,42,0.00,,,0.00,Wunderground v.1.15,2013-02-08 08:00:00,
2013-02-08 01:05:00,25.5,5.0,30.00,North,9,0.0,0.0,41,0.00,,,0.00,Wunderground v.1.15,2013-02-08 08:05:00,
2013-02-08 01:15:00,25.0,5.6,30.00,North,9,0.0,0.0,43,0.00,,,0.00,Wunderground v.1.15,2013-02-08 08:15:00,
2013-02-08 01:20:00,25.1,4.7,30.00,North,9,0.0,0.0,41,0.00,,,0.00,Wunderground v.1.15,2013-02-08 08:20:00,
2013-02-08 01:25:00,24.8,4.4,30.00,North,8,0.0,1.0,41,0.00,,,0.00,Wunderground v.1.15,2013-02-08 08:25:00,
2013-02-08 01:30:00,25.1,4.7,30.00,NNE,17,0.0,0.0,41,0.00,,,0.00,Wunderground v.1.15,2013-02-08 08:30:00,
2013-02-08 01:35:00,25.3,4.3,30.00,North,350,0.0,0.0,40,0.00,,,0.00,Wunderground v.1.15,2013-02-08 08:35:00,
2013-02-08 01:40:00,24.9,5.0,30.00,NNE,16,0.0,1.0,42,0.00,,,0.00,Wunderground v.1.15,2013-02-08 08:40:00,
2013-02-08 01:45:00,24.7,4.3,30.00,NNW,341,0.0,1.0,41,0.00,,,0.00,Wunderground v.1.15,2013-02-08 08:45:00,
2013-02-08 01:50:00,24.4,4.6,30.00,NE,50,0.0,1.0,42,0.00,,,0.00,Wunderground v.1.15,2013-02-08 08:50:00,
2013-02-08 02:00:00,24.0,4.7,29.99,East,86,1.0,1.0,43,0.00,,,0.00,Wunderground v.1.15,2013-02-08 09:00:00,
2013-02-08 02:10:00,23.7,4.9,29.99,SW,224,1.0,1.0,44,0.00,,,0.00,Wunderground v.1.15,2013-02-08 09:10:00,
2013-02-08 02:15:00,23.6,4.3,29.99,North,3,1.0,2.0,43,0.00,,,0.00,Wunderground v.1.15,2013-02-08 09:15:00,
2013-02-08 02:20:00,24.3,3.9,29.99,North,5,1.0,1.0,41,0.00,,,0.00,Wunderground v.1.15,2013-02-08 09:20:00,
2013-02-08 02:25:00,24.4,2.9,29.98,North,356,1.0,1.0,39,0.00,,,0.00,Wunderground v.1.15,2013-02-08 09:25:00,
2013-02-08 02:30:00,24.4,2.9,29.98,West,267,0.0,1.0,39,0.00,,,0.00,Wunderground v.1.15,2013-02-08 09:30:00,
2013-02-08 02:35:00,24.5,2.5,29.98,ESE,105,0.0,1.0,38,0.00,,,0.00,Wunderground v.1.15,2013-02-08 09:35:00,
2013-02-08 02:40:00,25.0,2.9,29.98,North,355,1.0,1.0,38,0.00,,,0.00,Wunderground v.1.15,2013-02-08 09:40:00,
2013-02-08 02:50:00,24.2,3.3,29.98,NE,34,0.0,1.0,40,0.00,,,0.00,Wunderground v.1.15,2013-02-08 09:50:00,
2013-02-08 02:55:00,23.9,2.5,29.97,West,275,0.0,1.0,39,0.00,,,0.00,Wunderground v.1.15,2013-02-08 09:55:00,
2013-02-08 03:00:00,23.6,2.8,29.97,West,276,0.0,0.0,40,0.00,,,0.00,Wunderground v.1.15,2013-02-08 10:00:00,
2013-02-08 03:05:00,23.1,2.9,29.97,West,276,0.0,0.0,41,0.00,,,0.00,Wunderground v.1.15,2013-02-08 10:05:00,
2013-02-08 03:15:00,23.0,1.7,29.97,West,276,0.0,0.0,39,0.00,,,0.00,Wunderground v.1.15,2013-02-08 10:15:00,
2013-02-08 03:20:00,23.0,3.3,29.97,West,274,0.0,1.0,42,0.00,,,0.00,Wunderground v.1.15,2013-02-08 10:20:00,
2013-02-08 03:30:00,22.5,1.8,29.96,NNW,328,0.0,0.0,40,0.00,,,0.00,Wunderground v.1.15,2013-02-08 10:30:00,
2013-02-08 03:35:00,22.5,2.3,29.97,NNW,346,0.0,1.0,41,0.00,,,0.00,Wunderground v.1.15,2013-02-08 10:35:00,
2013-02-08 03:40:00,22.1,1.9,29.96,WNW,297,0.0,0.0,41,0.00,,,0.00,Wunderground v.1.15,2013-02-08 10:40:00,
2013-02-08 03:45:00,22.3,2.6,29.96,SE,124,1.0,1.0,42,0.00,,,0.00,Wunderground v.1.15,2013-02-08 10:45:00,
2013-02-08 03:50:00,21.9,2.8,29.96,NNW,342,1.0,1.0,43,0.00,,,0.00,Wunderground v.1.15,2013-02-08 10:50:00,
2013-02-08 03:55:00,21.2,2.6,29.96,WSW,246,1.0,1.0,44,0.00,,,0.00,Wunderground v.1.15,2013-02-08 10:55:00,
2013-02-08 04:00:00,20.5,2.5,29.96,WSW,246,0.0,0.0,45,0.00,,,0.00,Wunderground v.1.15,2013-02-08 11:00:00,
2013-02-08 04:05:00,20.2,3.2,29.96,NE,51,0.0,0.0,47,0.00,,,0.00,Wunderground v.1.15,2013-02-08 11:05:00,
2013-02-08 04:15:00,20.8,2.8,29.96,NE,37,1.0,1.0,45,0.00,,,0.00,Wunderground v.1.15,2013-02-08 11:15:00,
2013-02-08 04:25:00,21.2,1.1,29.96,North,356,1.0,1.0,41,0.00,,,0.00,Wunderground v.1.15,2013-02-08 11:25:00,
2013-02-08 04:30:00,21.5,1.9,29.97,North,359,0.0,0.0,42,0.00,,,0.00,Wunderground v.1.15,2013-02-08 11:30:00,
2013-02-08 04:35:00,22.0,1.9,29.97,South,170,0.0,0.0,41,0.00,,,0.00,Wunderground v.1.15,2013-02-08 11:35:00,
2013-02-08 04:40:00,21.5,1.4,29.97,West,269,1.0,1.0,41,0.00,,,0.00,Wunderground v.1.15,2013-02-08 11:40:00,
2013-02-08 04:45:00,21.8,2.2,29.97,NE,40,1.0,1.0,42,0.00,,,0.00,Wunderground v.1.15,2013-02-08 11:45:00,
2013-02-08 04:55:00,21.9,0.7,29.97,NE,40,0.0,0.0,39,0.00,,,0.00,Wunderground v.1.15,2013-02-08 11:55:00,
2013-02-08 05:00:00,21.7,1.6,29.97,ENE,68,0.0,0.0,41,0.00,,,0.00,Wunderground v.1.15,2013-02-08 12:00:00,
2013-02-08 05:05:00,21.2,1.6,29.97,ENE,68,0.0,1.0,42,0.00,,,0.00,Wunderground v.1.15,2013-02-08 12:05:00,
2013-02-08 05:15:00,20.0,1.5,29.96,WSW,256,1.0,1.0,44,0.00,,,0.00,Wunderground v.1.15,2013-02-08 12:15:00,
2013-02-08 05:20:00,20.7,2.7,29.96,WSW,256,0.0,0.0,45,0.00,,,0.00,Wunderground v.1.15,2013-02-08 12:20:00,
2013-02-08 05:30:00,20.7,1.7,29.95,NNW,338,0.0,0.0,43,0.00,,,0.00,Wunderground v.1.15,2013-02-08 12:30:00,
2013-02-08 05:40:00,21.2,1.6,29.95,North,6,0.0,0.0,42,0.00,,,0.00,Wunderground v.1.15,2013-02-08 12:40:00,
2013-02-08 05:45:00,23.0,0.0,29.94,West,266,1.0,3.0,36,0.00,,,0.00,Wunderground v.1.15,2013-02-08 12:45:00,
2013-02-08 05:50:00,27.6,-0.6,29.94,NNW,336,2.0,2.0,29,0.00,,,0.00,Wunderground v.1.15,2013-02-08 12:50:00,
2013-02-08 05:55:00,29.7,-0.3,29.94,West,274,3.0,3.0,27,0.00,,,0.00,Wunderground v.1.15,2013-02-08 12:55:00,
2013-02-08 06:00:00,30.0,-0.8,29.94,NW,307,2.0,7.0,26,0.00,,,0.00,Wunderground v.1.15,2013-02-08 13:00:00,
2013-02-08 06:05:00,30.0,-0.8,29.94,NW,314,2.0,7.0,26,0.00,,,0.00,Wunderground v.1.15,2013-02-08 13:05:00,
2013-02-08 06:15:00,30.0,1.5,29.94,SE,134,2.0,4.0,29,0.00,,,0.00,Wunderground v.1.15,2013-02-08 13:15:00,
2013-02-08 06:20:00,27.5,0.1,29.94,WSW,238,1.0,1.0,30,0.00,,,0.00,Wunderground v.1.15,2013-02-08 13:20:00,
2013-02-08 06:25:00,26.2,0.3,29.94,NE,54,1.0,1.0,32,0.00,,,0.00,Wunderground v.1.15,2013-02-08 13:25:00,
2013-02-08 06:30:00,24.7,1.5,29.95,NE,51,1.0,1.0,36,0.00,,,0.00,Wunderground v.1.15,2013-02-08 13:30:00,
2013-02-08 06:35:00,23.7,1.2,29.95,NE,54,1.0,1.0,37,0.00,,,0.00,Wunderground v.1.15,2013-02-08 13:35:00,
2013-02-08 06:40:00,24.2,0.4,29.95,ESE,116,1.0,1.0,35,0.00,,,0.00,Wunderground v.1.15,2013-02-08 13:40:00,
2013-02-08 06:45:00,24.1,0.3,29.95,NNW,336,1.0,1.0,35,0.00,,,0.00,Wunderground v.1.15,2013-02-08 13:45:00,
2013-02-08 06:55:00,24.7,0.9,29.95,West,276,0.0,1.0,35,0.00,,,0.00,Wunderground v.1.15,2013-02-08 13:55:00,
2013-02-08 07:00:00,24.0,0.9,29.95,West,278,0.0,0.0,36,0.00,,,0.00,Wunderground v.1.15,2013-02-08 14:00:00,
2013-02-08 07:05:00,24.3,0.5,29.95,NW,319,0.0,0.0,35,0.00,,,0.00,Wunderground v.1.15,2013-02-08 14:05:00,
2013-02-08 07:15:00,24.4,1.2,29.96,West,267,1.0,1.0,36,0.00,,,0.00,Wunderground v.1.15,2013-02-08 14:15:00,
2013-02-08 07:20:00,24.7,1.5,29.96,NNE,27,1.0,2.0,36,0.00,,,0.00,Wunderground v.1.15,2013-02-08 14:20:00,
2013-02-08 07:25:00,24.4,1.8,29.96,SSW,192,1.0,2.0,37,0.00,,,0.00,Wunderground v.1.15,2013-02-08 14:25:00,
2013-02-08 07:35:00,23.3,2.5,29.96,WSW,250,0.0,1.0,40,0.00,,,0.00,Wunderground v.1.15,2013-02-08 14:35:00,
2013-02-08 07:40:00,23.4,2.6,29.95,WSW,240,0.0,1.0,40,0.00,,,0.00,Wunderground v.1.15,2013-02-08 14:40:00,
2013-02-08 07:45:00,24.2,2.2,29.96,East,80,1.0,1.0,38,0.00,,,0.00,Wunderground v.1.15,2013-02-08 14:45:00,
2013-02-08 07:50:00,24.5,2.5,29.95,East,81,1.0,1.0,38,0.00,,,0.00,Wunderground v.1.15,2013-02-08 14:50:00,
2013-02-08 07:55:00,24.9,3.4,29.95,East,80,0.0,1.0,39,0.00,,,0.00,Wunderground v.1.15,2013-02-08 14:55:00,
2013-02-08 08:00:00,24.9,4.5,29.95,East,94,0.0,1.0,41,0.00,,,0.00,Wunderground v.1.15,2013-02-08 15:00:00,
2013-02-08 08:05:00,24.2,4.9,29.96,East,94,0.0,1.0,43,0.00,,,0.00,Wunderground v.1.15,2013-02-08 15:05:00,
2013-02-08 08:15:00,24.2,4.4,29.95,WSW,248,1.0,2.0,42,0.00,,,0.00,Wunderground v.1.15,2013-02-08 15:15:00,
2013-02-08 08:20:00,24.6,3.1,29.95,NNW,329,1.0,1.0,39,0.00,,,0.00,Wunderground v.1.15,2013-02-08 15:20:00,
2013-02-08 08:25:00,25.5,3.9,29.95,West,261,1.0,2.0,39,0.00,,,0.00,Wunderground v.1.15,2013-02-08 15:25:00,
2013-02-08 08:30:00,26.7,3.3,29.94,SW,225,1.0,1.0,36,0.00,,,0.00,Wunderground v.1.15,2013-02-08 15:30:00,
2013-02-08 08:35:00,27.5,3.4,29.93,West,280,1.0,1.0,35,0.00,,,0.00,Wunderground v.1.15,2013-02-08 15:35:00,
2013-02-08 08:40:00,28.0,2.6,29.93,West,270,0.0,0.0,33,0.00,,,0.00,Wunderground v.1.15,2013-02-08 15:40:00,
2013-02-08 08:50:00,28.7,3.8,29.93,ENE,70,1.0,1.0,34,0.00,,,0.00,Wunderground v.1.15,2013-02-08 15:50:00,
2013-02-08 09:00:00,29.4,5.7,29.92,ENE,64,0.0,0.0,36,0.00,,,0.00,Wunderground v.1.15,2013-02-08 16:00:00,
2013-02-08 09:05:00,30.0,5.0,29.92,ENE,64,1.0,1.0,34,0.00,,,0.00,Wunderground v.1.15,2013-02-08 16:05:00,
2013-02-08 09:15:00,31.2,6.0,29.92,ENE,65,0.0,1.0,34,0.00,,,0.00,Wunderground v.1.15,2013-02-08 16:15:00,
2013-02-08 09:25:00,32.2,5.6,29.92,SSW,205,1.0,1.0,32,0.00,,,0.00,Wunderground v.1.15,2013-02-08 16:25:00,
2013-02-08 09:30:00,33.1,6.4,29.93,West,276,1.0,2.0,32,0.00,,,0.00,Wunderground v.1.15,2013-02-08 16:30:00,
2013-02-08 09:40:00,33.9,5.7,29.92,South,176,2.0,2.0,30,0.00,,,0.00,Wunderground v.1.15,2013-02-08 16:40:00,
2013-02-08 09:45:00,34.3,5.3,29.92,SW,224,1.0,2.0,29,0.00,,,0.00,Wunderground v.1.15,2013-02-08 16:45:00,
2013-02-08 09:50:00,34.9,5.8,29.92,South,181,0.0,0.0,29,0.00,,,0.00,Wunderground v.1.15,2013-02-08 16:50:00,
2013-02-08 09:55:00,35.5,5.6,29.92,South,179,0.0,0.0,28,0.00,,,0.00,Wunderground v.1.15,2013-02-08 16:55:00,
2013-02-08 10:00:00,35.7,5.7,29.92,SE,128,0.0,1.0,28,0.00,,,0.00,Wunderground v.1.15,2013-02-08 17:00:00,
2013-02-08 10:05:00,35.3,5.4,29.92,SSE,156,1.0,1.0,28,0.00,,,0.00,Wunderground v.1.15,2013-02-08 17:05:00,
2013-02-08 10:14:00,34.9,5.8,29.92,East,97,2.0,2.0,29,0.00,,,0.00,Wunderground v.1.15,2013-02-08 17:14:00,
2013-02-08 10:20:00,34.9,6.6,29.92,ENE,58,2.0,2.0,30,0.00,,,0.00,Wunderground v.1.15,2013-02-08 17:20:00,
2013-02-08 10:25:00,34.9,7.3,29.92,East,101,1.0,2.0,31,0.00,,,0.00,Wunderground v.1.15,2013-02-08 17:25:00,
2013-02-08 10:30:00,35.3,8.3,29.92,ENE,78,1.0,2.0,32,0.00,,,0.00,Wunderground v.1.15,2013-02-08 17:30:00,
2013-02-08 10:35:00,35.6,7.9,29.92,East,79,1.0,2.0,31,0.00,,,0.00,Wunderground v.1.15,2013-02-08 17:35:00,
2013-02-08 10:40:00,35.9,8.9,29.91,ENE,74,1.0,1.0,32,0.00,,,0.00,Wunderground v.1.15,2013-02-08 17:40:00,
2013-02-08 10:45:00,36.8,9.7,29.91,SE,138,1.0,1.0,32,0.00,,,0.00,Wunderground v.1.15,2013-02-08 17:45:00,
2013-02-08 10:55:00,39.9,7.7,29.90,SSE,149,1.0,2.0,26,0.00,,,0.00,Wunderground v.1.15,2013-02-08 17:55:00,
2013-02-08 11:00:00,40.2,8.0,29.90,SSE,147,2.0,2.0,26,0.00,,,0.00,Wunderground v.1.15,2013-02-08 18:00:00,
2013-02-08 11:05:00,40.9,8.6,29.89,ENE,77,1.0,2.0,26,0.00,,,0.00,Wunderground v.1.15,2013-02-08 18:05:00,
2013-02-08 11:15:00,42.8,6.5,29.89,East,97,1.0,2.0,22,0.00,,,0.00,Wunderground v.1.15,2013-02-08 18:15:00,
2013-02-08 11:20:00,43.9,7.4,29.89,ESE,104,1.0,2.0,22,0.00,,,0.00,Wunderground v.1.15,2013-02-08 18:20:00,
2013-02-08 11:25:00,45.1,7.4,29.88,SE,129,1.0,2.0,21,0.00,,,0.00,Wunderground v.1.15,2013-02-08 18:25:00,
2013-02-08 11:30:00,46.7,4.1,29.87,WSW,248,2.0,2.0,17,0.00,,,0.00,Wunderground v.1.15,2013-02-08 18:30:00,
2013-02-08 11:35:00,48.4,4.2,29.87,SSW,211,1.0,2.0,16,0.00,,,0.00,Wunderground v.1.15,2013-02-08 18:35:00,
2013-02-08 11:45:00,49.6,0.7,29.86,ESE,120,2.0,2.0,13,0.00,,,0.00,Wunderground v.1.15,2013-02-08 18:45:00,
2013-02-08 11:50:00,49.5,0.6,29.85,ESE,118,2.0,2.0,13,0.00,,,0.00,Wunderground v.1.15,2013-02-08 18:50:00,
2013-02-08 11:55:00,49.9,0.9,29.85,SE,132,2.0,2.0,13,0.00,,,0.00,Wunderground v.1.15,2013-02-08 18:55:00,
2013-02-08 12:05:00,50.5,-0.3,29.84,ESE,108,3.0,5.0,12,0.00,,,0.00,Wunderground v.1.15,2013-02-08 19:05:00,
2013-02-08 12:15:00,50.6,1.5,29.84,ENE,57,3.0,5.0,13,0.00,,,0.00,Wunderground v.1.15,2013-02-08 19:15:00,
2013-02-08 12:20:00,50.1,1.1,29.83,East,96,4.0,4.0,13,0.00,,,0.00,Wunderground v.1.15,2013-02-08 19:20:00,
2013-02-08 12:25:00,50.4,4.4,29.83,SE,138,3.0,4.0,15,0.00,,,0.00,Wunderground v.1.15,2013-02-08 19:25:00,
2013-02-08 12:34:00,50.6,4.6,29.83,SW,214,3.0,4.0,15,0.00,,,0.00,Wunderground v.1.15,2013-02-08 19:34:00,
2013-02-08 12:40:00,50.5,3.0,29.82,South,172,3.0,3.0,14,0.00,,,0.00,Wunderground v.1.15,2013-02-08 19:40:00,
2013-02-08 12:45:00,50.6,4.6,29.82,SE,127,3.0,5.0,15,0.00,,,0.00,Wunderground v.1.15,2013-02-08 19:45:00,
2013-02-08 12:50:00,50.7,4.6,29.82,SE,137,3.0,4.0,15,0.00,,,0.00,Wunderground v.1.15,2013-02-08 19:50:00,
2013-02-08 12:55:00,50.4,4.4,29.82,SSE,155,3.0,4.0,15,0.00,,,0.00,Wunderground v.1.15,2013-02-08 19:55:00,
2013-02-08 13:00:00,50.2,4.2,29.82,ESE,114,3.0,3.0,15,0.00,,,0.00,Wunderground v.1.15,2013-02-08 20:00:00,
2013-02-08 13:05:00,50.7,4.6,29.81,ESE,117,3.0,3.0,15,0.00,,,0.00,Wunderground v.1.15,2013-02-08 20:05:00,
2013-02-08 13:15:00,50.7,3.1,29.80,SE,129,2.0,4.0,14,0.00,,,0.00,Wunderground v.1.15,2013-02-08 20:15:00,
2013-02-08 13:20:00,51.3,3.6,29.80,SE,134,2.0,2.0,14,0.00,,,0.00,Wunderground v.1.15,2013-02-08 20:20:00,
2013-02-08 13:25:00,51.2,3.5,29.79,SSE,160,3.0,3.0,14,0.00,,,0.00,Wunderground v.1.15,2013-02-08 20:25:00,
2013-02-08 13:30:00,51.8,4.0,29.79,ESE,110,2.0,2.0,14,0.00,,,0.00,Wunderground v.1.15,2013-02-08 20:30:00,
2013-02-08 13:35:00,52.0,4.2,29.78,South,170,2.0,3.0,14,0.00,,,0.00,Wunderground v.1.15,2013-02-08 20:35:00,
2013-02-08 13:40:00,51.7,2.3,29.77,SE,139,2.0,2.0,13,0.00,,,0.00,Wunderground v.1.15,2013-02-08 20:40:00,
2013-02-08 13:45:00,51.8,2.4,29.77,North,9,2.0,2.0,13,0.00,,,0.00,Wunderground v.1.15,2013-02-08 20:45:00,
2013-02-08 13:55:00,51.4,0.4,29.76,ESE,116,3.0,4.0,12,0.00,,,0.00,Wunderground v.1.15,2013-02-08 20:55:00,
2013-02-08 14:00:00,51.2,1.9,29.76,ENE,68,3.0,3.0,13,0.00,,,0.00,Wunderground v.1.15,2013-02-08 21:00:00,
2013-02-08 14:05:00,51.2,0.2,29.76,NNE,27,3.0,3.0,12,0.00,,,0.00,Wunderground v.1.15,2013-02-08 21:05:00,
2013-02-08 14:15:00,51.9,0.8,29.76,ENE,70,2.0,3.0,12,0.00,,,0.00,Wunderground v.1.15,2013-02-08 21:15:00,
2013-02-08 14:20:00,51.2,0.2,29.75,South,187,3.0,3.0,12,0.00,,,0.00,Wunderground v.1.15,2013-02-08 21:20:00,
2013-02-08 14:25:00,50.9,0.0,29.75,ESE,123,3.0,3.0,12,0.00,,,0.00,Wunderground v.1.15,2013-02-08 21:25:00,
2013-02-08 14:30:00,50.8,1.6,29.75,ESE,105,3.0,3.0,13,0.00,,,0.00,Wunderground v.1.15,2013-02-08 21:30:00,
2013-02-08 14:35:00,51.1,1.9,29.74,East,80,2.0,3.0,13,0.00,,,0.00,Wunderground v.1.15,2013-02-08 21:35:00,
2013-02-08 14:45:00,51.1,1.9,29.74,SSE,158,2.0,3.0,13,0.00,,,0.00,Wunderground v.1.15,2013-02-08 21:45:00,
2013-02-08 14:50:00,51.4,0.4,29.74,SSE,153,2.0,2.0,12,0.00,,,0.00,Wunderground v.1.15,2013-02-08 21:50:00,
2013-02-08 14:55:00,51.3,2.0,29.73,South,183,2.0,2.0,13,0.00,,,0.00,Wunderground v.1.15,2013-02-08 21:55:00,
2013-02-08 15:00:00,51.3,0.3,29.73,SE,146,2.0,2.0,12,0.00,,,0.00,Wunderground v.1.15,2013-02-08 22:00:00,
2013-02-08 15:05:00,51.2,0.2,29.73,SE,134,2.0,2.0,12,0.00,,,0.00,Wunderground v.1.15,2013-02-08 22:05:00,
2013-02-08 15:15:00,51.4,2.1,29.72,East,80,2.0,2.0,13,0.00,,,0.00,Wunderground v.1.15,2013-02-08 22:15:00,
2013-02-08 15:20:00,51.4,0.4,29.73,ESE,118,2.0,6.0,12,0.00,,,0.00,Wunderground v.1.15,2013-02-08 22:20:00,
2013-02-08 15:25:00,51.2,1.9,29.72,SE,133,2.0,6.0,13,0.00,,,0.00,Wunderground v.1.15,2013-02-08 22:25:00,
2013-02-08 15:30:00,51.3,2.0,29.72,NE,40,2.0,5.0,13,0.00,,,0.00,Wunderground v.1.15,2013-02-08 22:30:00,
2013-02-08 15:35:00,51.0,1.8,29.72,ESE,104,2.0,5.0,13,0.00,,,0.00,Wunderground v.1.15,2013-02-08 22:35:00,
2013-02-08 15:40:00,50.9,1.7,29.72,South,169,2.0,2.0,13,0.00,,,0.00,Wunderground v.1.15,2013-02-08 22:40:00,
2013-02-08 15:45:00,50.6,1.5,29.72,NE,47,2.0,2.0,13,0.00,,,0.00,Wunderground v.1.15,2013-02-08 22:45:00,
2013-02-08 15:55:00,50.6,1.5,29.71,SE,129,2.0,2.0,13,0.00,,,0.00,Wunderground v.1.15,2013-02-08 22:55:00,
2013-02-08 16:00:00,50.6,-0.3,29.71,ENE,70,2.0,2.0,12,0.00,,,0.00,Wunderground v.1.15,2013-02-08 23:00:00,
2013-02-08 16:05:00,50.7,-0.2,29.71,ESE,102,1.0,2.0,12,0.00,,,0.00,Wunderground v.1.15,2013-02-08 23:05:00,
2013-02-08 16:15:00,50.0,1.0,29.71,East,80,1.0,1.0,13,0.00,,,0.00,Wunderground v.1.15,2013-02-08 23:15:00,
2013-02-08 16:20:00,49.7,0.7,29.71,NNW,346,1.0,1.0,13,0.00,,,0.00,Wunderground v.1.15,2013-02-08 23:20:00,
2013-02-08 16:25:00,49.1,0.3,29.71,NNW,348,1.0,2.0,13,0.00,,,0.00,Wunderground v.1.15,2013-02-08 23:25:00,
2013-02-08 16:35:00,48.2,1.1,29.71,NNW,342,2.0,2.0,14,0.00,,,0.00,Wunderground v.1.15,2013-02-08 23:35:00,
2013-02-08 16:40:00,47.8,0.8,29.71,North,351,1.0,1.0,14,0.00,,,0.00,Wunderground v.1.15,2013-02-08 23:40:00,
2013-02-08 16:45:00,47.3,0.4,29.71,NW,323,2.0,2.0,14,0.00,,,0.00,Wunderground v.1.15,2013-02-08 23:45:00,
2013-02-08 16:50:00,47.4,0.5,29.71,NNW,342,2.0,2.0,14,0.00,,,0.00,Wunderground v.1.15,2013-02-08 23:50:00,
2013-02-08 16:55:00,47.6,0.7,29.71,NNW,343,1.0,2.0,14,0.00,,,0.00,Wunderground v.1.15,2013-02-08 23:55:00,
2013-02-08 17:00:00,47.1,1.7,29.71,North,352,1.0,1.0,15,0.00,,,0.00,Wunderground v.1.15,2013-02-09 00:00:00,
2013-02-08 17:05:00,46.4,1.2,29.70,North,351,1.0,1.0,15,0.00,,,0.00,Wunderground v.1.15,2013-02-09 00:05:00,
2013-02-08 17:14:00,45.2,2.9,29.71,North,352,0.0,1.0,17,0.00,,,0.00,Wunderground v.1.15,2013-02-09 00:14:00,
2013-02-08 17:20:00,44.3,2.1,29.71,North,352,0.0,0.0,17,0.00,,,0.00,Wunderground v.1.15,2013-02-09 00:20:00,
2013-02-08 17:25:00,43.6,1.6,29.71,North,352,0.0,0.0,17,0.00,,,0.00,Wunderground v.1.15,2013-02-09 00:25:00,
2013-02-08 17:30:00,43.1,2.4,29.71,North,352,0.0,0.0,18,0.00,,,0.00,Wunderground v.1.15,2013-02-09 00:30:00,
2013-02-08 17:35:00,42.8,3.3,29.71,North,352,0.0,0.0,19,0.00,,,0.00,Wunderground v.1.15,2013-02-09 00:35:00,
2013-02-08 17:40:00,42.2,2.8,29.71,North,352,0.0,1.0,19,0.00,,,0.00,Wunderground v.1.15,2013-02-09 00:40:00,
2013-02-08 17:50:00,41.2,3.1,29.71,North,352,0.0,0.0,20,0.00,,,0.00,Wunderground v.1.15,2013-02-09 00:50:00,
2013-02-08 17:55:00,40.5,3.6,29.71,North,353,0.0,0.0,21,0.00,,,0.00,Wunderground v.1.15,2013-02-09 00:55:00,
2013-02-08 18:00:00,39.6,3.8,29.71,North,352,0.0,1.0,22,0.00,,,0.00,Wunderground v.1.15,2013-02-09 01:00:00,
2013-02-08 18:05:00,39.0,3.3,29.71,North,358,0.0,1.0,22,0.00,,,0.00,Wunderground v.1.15,2013-02-09 01:05:00,
2013-02-08 18:15:00,37.7,3.2,29.72,North,359,0.0,0.0,23,0.00,,,0.00,Wunderground v.1.15,2013-02-09 01:15:00,
2013-02-08 18:25:00,36.4,3.9,29.72,ENE,60,0.0,1.0,25,0.00,,,0.00,Wunderground v.1.15,2013-02-09 01:25:00,
2013-02-08 18:35:00,35.7,3.3,29.72,ENE,60,0.0,1.0,25,0.00,,,0.00,Wunderground v.1.15,2013-02-09 01:35:00,
2013-02-08 18:40:00,35.8,4.2,29.71,NNE,24,0.0,0.0,26,0.00,,,0.00,Wunderground v.1.15,2013-02-09 01:40:00,
2013-02-08 18:45:00,35.4,3.9,29.71,ESE,115,1.0,1.0,26,0.00,,,0.00,Wunderground v.1.15,2013-02-09 01:45:00,
2013-02-08 18:50:00,34.4,3.8,29.72,North,352,1.0,2.0,27,0.00,,,0.00,Wunderground v.1.15,2013-02-09 01:50:00,
2013-02-08 18:55:00,34.3,4.5,29.72,NNW,342,1.0,2.0,28,0.00,,,0.00,Wunderground v.1.15,2013-02-09 01:55:00,
2013-02-08 19:00:00,34.0,4.3,29.72,NNW,343,0.0,0.0,28,0.00,,,0.00,Wunderground v.1.15,2013-02-09 02:00:00,
2013-02-08 19:10:00,33.6,3.9,29.72,NNW,338,0.0,0.0,28,0.00,,,0.00,Wunderground v.1.15,2013-02-09 02:10:00,
2013-02-08 19:15:00,33.6,3.9,29.72,North,1,0.0,0.0,28,0.00,,,0.00,Wunderground v.1.15,2013-02-09 02:15:00,
2013-02-08 19:20:00,33.2,4.3,29.72,NNE,32,0.0,0.0,29,0.00,,,0.00,Wunderground v.1.15,2013-02-09 02:20:00,
2013-02-08 19:25:00,33.0,4.1,29.72,West,281,0.0,0.0,29,0.00,,,0.00,Wunderground v.1.15,2013-02-09 02:25:00,
2013-02-08 19:30:00,33.3,4.4,29.72,NNE,15,0.0,1.0,29,0.00,,,0.00,Wunderground v.1.15,2013-02-09 02:30:00,
2013-02-08 19:40:00,32.9,4.1,29.72,West,259,0.0,0.0,29,0.00,,,0.00,Wunderground v.1.15,2013-02-09 02:40:00,
2013-02-08 19:45:00,32.7,3.9,29.71,West,259,0.0,0.0,29,0.00,,,0.00,Wunderground v.1.15,2013-02-09 02:45:00,
2013-02-08 19:50:00,32.2,4.2,29.71,West,262,0.0,0.0,30,0.00,,,0.00,Wunderground v.1.15,2013-02-09 02:50:00,
2013-02-08 20:00:00,31.7,4.5,29.71,West,261,0.0,1.0,31,0.00,,,0.00,Wunderground v.1.15,2013-02-09 03:00:00,
2013-02-08 20:05:00,34.1,4.3,29.71,WNW,285,1.0,4.0,28,0.00,,,0.00,Wunderground v.1.15,2013-02-09 03:05:00,
2013-02-08 20:15:00,36.8,3.3,29.71,NE,40,2.0,4.0,24,0.00,,,0.00,Wunderground v.1.15,2013-02-09 03:15:00,
2013-02-08 20:20:00,37.4,3.8,29.71,NE,50,2.0,2.0,24,0.00,,,0.00,Wunderground v.1.15,2013-02-09 03:20:00,
2013-02-08 20:25:00,37.3,3.7,29.71,WNW,283,2.0,2.0,24,0.00,,,0.00,Wunderground v.1.15,2013-02-09 03:25:00,
2013-02-08 20:30:00,37.3,3.7,29.70,West,281,2.0,2.0,24,0.00,,,0.00,Wunderground v.1.15,2013-02-09 03:30:00,
2013-02-08 20:35:00,36.1,3.6,29.70,NE,43,2.0,2.0,25,0.00,,,0.00,Wunderground v.1.15,2013-02-09 03:35:00,
2013-02-08 20:44:00,36.5,3.9,29.71,NE,44,1.0,2.0,25,0.00,,,0.00,Wunderground v.1.15,2013-02-09 03:44:00,
2013-02-08 20:50:00,35.1,3.6,29.70,WNW,291,1.0,1.0,26,0.00,,,0.00,Wunderground v.1.15,2013-02-09 03:50:00,
2013-02-08 20:55:00,34.2,3.6,29.70,North,4,1.0,3.0,27,0.00,,,0.00,Wunderground v.1.15,2013-02-09 03:55:00,
2013-02-08 21:00:00,33.4,3.7,29.70,ESE,112,1.0,1.0,28,0.00,,,0.00,Wunderground v.1.15,2013-02-09 04:00:00,
2013-02-08 21:05:00,32.2,3.4,29.70,West,278,1.0,1.0,29,0.00,,,0.00,Wunderground v.1.15,2013-02-09 04:05:00,
2013-02-08 21:15:00,31.3,3.4,29.70,ENE,60,0.0,0.0,30,0.00,,,0.00,Wunderground v.1.15,2013-02-09 04:15:00,
2013-02-08 21:25:00,34.5,3.9,29.70,WNW,293,2.0,2.0,27,0.00,,,0.00,Wunderground v.1.15,2013-02-09 04:25:00,
2013-02-08 21:30:00,35.6,4.0,29.71,NW,315,2.0,3.0,26,0.00,,,0.00,Wunderground v.1.15,2013-02-09 04:30:00,
2013-02-08 21:35:00,36.1,3.6,29.71,SSE,160,2.0,3.0,25,0.00,,,0.00,Wunderground v.1.15,2013-02-09 04:35:00,
2013-02-08 21:45:00,32.5,3.7,29.71,East,82,1.0,1.0,29,0.00,,,0.00,Wunderground v.1.15,2013-02-09 04:45:00,
2013-02-08 21:50:00,31.7,3.7,29.71,NE,43,1.0,1.0,30,0.00,,,0.00,Wunderground v.1.15,2013-02-09 04:50:00,
2013-02-08 21:55:00,30.8,3.7,29.71,NE,43,0.0,1.0,31,0.00,,,0.00,Wunderground v.1.15,2013-02-09 04:55:00,
2013-02-08 22:00:00,29.8,3.5,29.71,WSW,253,0.0,0.0,32,0.00,,,0.00,Wunderground v.1.15,2013-02-09 05:00:00,
2013-02-08 22:05:00,29.4,3.8,29.71,WSW,252,0.0,0.0,33,0.00,,,0.00,Wunderground v.1.15,2013-02-09 05:05:00,
2013-02-08 22:15:00,29.2,3.6,29.71,WSW,253,0.0,0.0,33,0.00,,,0.00,Wunderground v.1.15,2013-02-09 05:15:00,
2013-02-08 22:20:00,29.1,3.5,29.71,WSW,253,0.0,0.0,33,0.00,,,0.00,Wunderground v.1.15,2013-02-09 05:20:00,
2013-02-08 22:25:00,29.0,4.1,29.70,WSW,253,0.0,0.0,34,0.00,,,0.00,Wunderground v.1.15,2013-02-09 05:25:00,
2013-02-08 22:30:00,28.5,4.3,29.71,North,359,0.0,2.0,35,0.00,,,0.00,Wunderground v.1.15,2013-02-09 05:30:00,
2013-02-08 22:35:00,28.0,3.8,29.71,West,274,1.0,4.0,35,0.00,,,0.00,Wunderground v.1.15,2013-02-09 05:35:00,
2013-02-08 22:40:00,30.9,5.1,29.71,WNW,294,2.0,2.0,33,0.00,,,0.00,Wunderground v.1.15,2013-02-09 05:40:00,
2013-02-08 22:45:00,33.1,5.0,29.71,North,358,2.0,2.0,30,0.00,,,0.00,Wunderground v.1.15,2013-02-09 05:45:00,
2013-02-08 22:55:00,30.6,4.2,29.71,North,356,1.0,1.0,32,0.00,,,0.00,Wunderground v.1.15,2013-02-09 05:55:00,
2013-02-08 23:00:00,30.4,4.0,29.71,ENE,60,0.0,1.0,32,0.00,,,0.00,Wunderground v.1.15,2013-02-09 06:00:00,
2013-02-08 23:05:00,31.3,5.5,29.71,WNW,303,1.0,5.0,33,0.00,,,0.00,Wunderground v.1.15,2013-02-09 06:05:00,
2013-02-08 23:15:00,34.7,4.9,29.70,West,274,3.0,3.0,28,0.00,,,0.00,Wunderground v.1.15,2013-02-09 06:15:00,
2013-02-08 23:20:00,34.7,4.9,29.70,WNW,301,3.0,4.0,28,0.00,,,0.00,Wunderground v.1.15,2013-02-09 06:20:00,
2013-02-08 23:25:00,34.9,4.2,29.70,NNW,342,3.0,4.0,27,0.00,,,0.00,Wunderground v.1.15,2013-02-09 06:25:00,
2013-02-08 23:35:00,35.3,4.6,29.70,NNW,334,2.0,3.0,27,0.00,,,0.00,Wunderground v.1.15,2013-02-09 06:35:00,
2013-02-08 23:40:00,35.4,4.7,29.70,West,267,2.0,2.0,27,0.00,,,0.00,Wunderground v.1.15,2013-02-09 06:40:00,
2013-02-08 23:45:00,35.8,5.8,29.70,NW,308,2.0,2.0,28,0.00,,,0.00,Wunderground v.1.15,2013-02-09 06:45:00,
2013-02-08 23:50:00,34.8,4.2,29.70,ENE,62,2.0,2.0,27,0.00,,,0.00,Wunderground v.1.15,2013-02-09 06:50:00,
2013-02-08 23:55:00,32.4,4.4,29.70,ENE,63,1.0,2.0,30,0.00,,,0.00,Wunderground v.1.15,2013-02-09 06:55:00,